createdAt,value
2022-10-04T00:00:41.792Z,58.55
2022-10-04T00:03:19.045Z,59.02
2022-10-04T00:05:51.267Z,58.82
2022-10-04T00:08:40.869Z,58.54
2022-10-04T00:11:16.704Z,58.55
2022-10-04T00:13:52.749Z,58.43
2022-10-04T00:16:24.997Z,58.44
2022-10-04T00:19:02.310Z,58.82
2022-10-04T00:21:52.386Z,58.80
2022-10-04T00:24:33.874Z,59.04
2022-10-04T00:27:23.879Z,58.86
2022-10-04T00:30:26.036Z,58.67
2022-10-04T00:33:02.671Z,58.49
2022-10-04T00:35:29.308Z,58.65
2022-10-04T00:38:08.885Z,59.15
2022-10-04T00:40:57.462Z,59.18
2022-10-04T00:43:30.427Z,59.31
2022-10-04T00:46:05.938Z,59.52
2022-10-04T00:48:47.806Z,59.69
2022-10-04T00:51:29.686Z,59.70
2022-10-04T00:54:04.680Z,60.15
2022-10-04T00:56:37.292Z,60.07
2022-10-04T00:59:10.262Z,59.90
2022-10-04T01:01:38.038Z,60.32
2022-10-04T01:04:12.837Z,60.83
2022-10-04T01:06:41.182Z,61.31
2022-10-04T01:09:11.562Z,61.34
2022-10-04T01:11:45.817Z,60.75
2022-10-04T01:14:26.733Z,61.37
2022-10-04T01:16:53.695Z,61.44
2022-10-04T01:19:24.527Z,61.89
2022-10-04T01:22:10.577Z,62.24
2022-10-04T01:24:38.913Z,62.20
2022-10-04T01:27:33.783Z,61.81
2022-10-04T01:30:02.405Z,62.00
2022-10-04T01:32:31.165Z,62.21
2022-10-04T01:34:58.701Z,62.18
2022-10-04T01:37:25.749Z,62.18
2022-10-04T01:39:52.659Z,61.68
2022-10-04T01:42:27.387Z,61.63
2022-10-04T01:44:59.786Z,61.71
2022-10-04T01:47:31.142Z,61.72
2022-10-04T01:50:02.763Z,61.37
2022-10-04T01:52:35.643Z,61.10
2022-10-04T01:55:14.254Z,61.18
2022-10-04T01:58:00.789Z,61.37
2022-10-04T02:00:41.280Z,61.21
2022-10-04T02:03:17.997Z,61.37
2022-10-04T02:05:52.827Z,61.76
2022-10-04T02:08:27.396Z,61.73
2022-10-04T02:10:55.084Z,61.86
2022-10-04T02:13:24.339Z,61.54
2022-10-04T02:15:51.522Z,61.42
2022-10-04T02:18:21.172Z,61.60
2022-10-04T02:20:50.020Z,62.05
2022-10-04T02:23:19.784Z,62.26
2022-10-04T02:25:47.152Z,61.96
2022-10-04T02:28:15.581Z,62.35
2022-10-04T02:31:07.501Z,62.16
2022-10-04T02:33:40.252Z,62.25
2022-10-04T02:36:09.903Z,61.89
2022-10-04T02:38:48.032Z,61.92
2022-10-04T02:41:27.030Z,61.92
2022-10-04T02:43:59.425Z,61.45
2022-10-04T02:46:29.195Z,61.57
2022-10-04T02:48:59.921Z,61.55
2022-10-04T02:51:50.771Z,61.82
2022-10-04T02:54:32.057Z,62.21
2022-10-04T02:56:59.844Z,62.15
2022-10-04T02:59:27.383Z,62.25
2022-10-04T03:01:58.356Z,61.81
2022-10-04T03:04:33.834Z,62.11
2022-10-04T03:07:07.211Z,61.79
2022-10-04T03:09:36.505Z,61.61
2022-10-04T03:12:05.002Z,62.02
2022-10-04T03:14:32.375Z,61.78
2022-10-04T03:17:03.999Z,62.23
2022-10-04T03:19:32.205Z,61.82
2022-10-04T03:22:03.773Z,61.63
2022-10-04T03:24:56.184Z,61.76
2022-10-04T03:27:31.561Z,61.88
2022-10-04T03:29:59.597Z,61.82
2022-10-04T03:32:30.583Z,61.49
2022-10-04T03:35:03.068Z,60.94
2022-10-04T03:37:31.900Z,61.39
2022-10-04T03:39:59.835Z,60.80
2022-10-04T03:42:30.531Z,60.97
2022-10-04T03:45:07.492Z,61.29
2022-10-04T03:47:37.649Z,61.50
2022-10-04T03:50:33.655Z,61.50
2022-10-04T03:53:04.482Z,61.50
2022-10-04T03:55:38.844Z,61.51
2022-10-04T03:58:07.121Z,61.37
2022-10-04T04:00:43.290Z,61.57
2022-10-04T04:03:17.372Z,61.34
2022-10-04T04:05:57.664Z,61.50
2022-10-04T04:08:34.133Z,61.33
2022-10-04T04:11:04.248Z,61.26
2022-10-04T04:13:46.364Z,60.89
2022-10-04T04:16:14.812Z,60.70
2022-10-04T04:18:44.386Z,60.96
2022-10-04T04:21:18.695Z,60.89
2022-10-04T04:23:51.220Z,60.52
2022-10-04T04:26:17.925Z,60.77
2022-10-04T04:29:22.415Z,60.76
2022-10-04T04:31:55.041Z,61.02
2022-10-04T04:34:27.834Z,60.89
2022-10-04T04:37:00.198Z,60.87
2022-10-04T04:39:41.256Z,61.00
2022-10-04T04:42:10.958Z,61.03
2022-10-04T04:45:02.040Z,61.10
2022-10-04T04:47:35.062Z,61.03
2022-10-04T04:50:07.907Z,60.84
2022-10-04T04:52:36.020Z,60.82
2022-10-04T04:55:04.514Z,61.00
2022-10-04T04:57:33.397Z,60.98
2022-10-04T05:00:01.840Z,60.70
2022-10-04T05:02:29.760Z,60.71
2022-10-04T05:05:35.150Z,61.08
2022-10-04T05:08:14.728Z,61.13
2022-10-04T05:11:06.226Z,61.29
2022-10-04T05:13:32.887Z,61.18
2022-10-04T05:16:01.708Z,61.55
2022-10-04T05:18:34.561Z,61.29
2022-10-04T05:21:43.069Z,61.21
2022-10-04T05:24:13.894Z,61.60
2022-10-04T05:26:42.710Z,61.50
2022-10-04T05:29:18.928Z,61.82
2022-10-04T05:32:07.402Z,62.08
2022-10-04T05:34:40.511Z,61.84
2022-10-04T05:37:29.617Z,61.38
2022-10-04T05:40:05.611Z,61.64
2022-10-04T05:42:45.437Z,61.26
2022-10-04T05:45:18.576Z,61.66
2022-10-04T05:47:52.364Z,61.93
2022-10-04T05:50:29.207Z,62.32
2022-10-04T05:53:09.712Z,62.30
2022-10-04T05:55:39.296Z,62.39
2022-10-04T05:58:23.305Z,61.97
2022-10-04T06:01:15.428Z,62.36
2022-10-04T06:04:22.473Z,62.26
2022-10-04T06:06:59.214Z,61.99
2022-10-04T06:10:01.032Z,62.02
2022-10-04T06:12:45.264Z,61.99
2022-10-04T06:15:48.993Z,61.94
2022-10-04T06:18:33.872Z,62.28
2022-10-04T06:21:22.595Z,62.35
2022-10-04T06:23:49.166Z,61.99
2022-10-04T06:26:25.019Z,62.02
2022-10-04T06:29:01.504Z,61.77
2022-10-04T06:31:46.823Z,61.83
2022-10-04T06:34:19.745Z,61.83
2022-10-04T06:37:06.800Z,62.24
2022-10-04T06:39:55.284Z,62.77
2022-10-04T06:42:49.746Z,62.08
2022-10-04T06:45:29.650Z,62.18
2022-10-04T06:48:02.155Z,61.84
2022-10-04T06:50:36.686Z,61.69
2022-10-04T06:53:26.577Z,61.45
2022-10-04T06:56:03.085Z,61.73
2022-10-04T06:58:35.859Z,61.19
2022-10-04T07:01:32.304Z,61.42
2022-10-04T07:04:06.215Z,60.35
2022-10-04T07:07:26.886Z,60.79
2022-10-04T07:10:03.166Z,60.63
2022-10-04T07:12:33.707Z,60.38
2022-10-04T07:15:04.441Z,60.48
2022-10-04T07:17:38.396Z,59.79
2022-10-04T07:20:07.640Z,59.32
2022-10-04T07:22:41.918Z,59.92
2022-10-04T07:25:30.654Z,59.36
2022-10-04T07:28:38.503Z,59.73
2022-10-04T07:31:23.305Z,58.86
2022-10-04T07:33:56.172Z,58.83
2022-10-04T07:36:28.948Z,58.74
2022-10-04T07:39:05.984Z,58.67
2022-10-04T07:41:50.946Z,58.24
2022-10-04T07:44:37.244Z,58.27
2022-10-04T07:47:18.473Z,58.26
2022-10-04T07:49:45.720Z,57.59
2022-10-04T07:52:30.872Z,58.01
2022-10-04T07:55:22.831Z,57.87
2022-10-04T07:57:54.786Z,57.44
2022-10-04T08:00:26.234Z,57.35
2022-10-04T08:02:59.184Z,57.41
2022-10-04T08:05:42.239Z,56.78
2022-10-04T08:08:21.126Z,56.59
2022-10-04T08:10:59.809Z,55.92
2022-10-04T08:13:46.042Z,56.03
2022-10-04T08:16:41.070Z,56.03
2022-10-04T08:19:51.550Z,55.07
2022-10-04T08:22:29.963Z,55.53
2022-10-04T08:25:16.495Z,55.85
2022-10-04T08:28:23.258Z,55.96
2022-10-04T08:31:10.028Z,55.68
2022-10-04T08:33:57.886Z,55.71
2022-10-04T08:37:03.256Z,55.42
2022-10-04T08:39:55.422Z,54.95
2022-10-04T08:42:41.937Z,55.66
2022-10-04T08:45:08.588Z,55.72
2022-10-04T08:47:55.005Z,56.12
2022-10-04T08:50:49.105Z,56.17
2022-10-04T08:53:35.348Z,56.20
2022-10-04T08:56:13.260Z,56.67
2022-10-04T08:59:06.792Z,56.77
2022-10-04T09:02:00.185Z,55.79
2022-10-04T09:04:32.486Z,55.26
2022-10-04T09:07:17.847Z,55.33
2022-10-04T09:09:44.673Z,54.42
2022-10-04T09:12:29.369Z,52.58
2022-10-04T09:15:14.104Z,52.97
2022-10-04T09:17:59.140Z,53.41
2022-10-04T09:20:38.816Z,52.67
2022-10-04T09:23:14.903Z,52.49
2022-10-04T09:25:41.827Z,52.95
2022-10-04T09:28:33.248Z,53.24
2022-10-04T09:31:22.751Z,52.89
2022-10-04T09:34:55.693Z,53.03
2022-10-04T09:37:29.678Z,53.28
2022-10-04T09:40:30.208Z,53.30
2022-10-04T09:43:24.821Z,53.36
2022-10-04T09:46:20.529Z,52.88
2022-10-04T09:49:08.341Z,52.78
2022-10-04T09:51:56.241Z,52.33
2022-10-04T09:54:56.764Z,52.36
2022-10-04T09:57:51.111Z,52.83
2022-10-04T10:00:29.437Z,53.07
2022-10-04T10:03:11.025Z,53.50
2022-10-04T10:05:56.412Z,53.10
2022-10-04T10:08:50.915Z,52.36
2022-10-04T10:12:08.855Z,52.60
2022-10-04T10:15:06.490Z,52.63
2022-10-04T10:17:43.323Z,52.52
2022-10-04T10:20:10.135Z,53.31
2022-10-04T10:22:57.977Z,53.50
2022-10-04T10:25:47.370Z,52.94
2022-10-04T10:28:35.908Z,53.32
2022-10-04T10:31:33.005Z,52.46
2022-10-04T10:34:08.645Z,52.03
2022-10-04T10:36:59.978Z,51.88
2022-10-04T10:40:00.313Z,51.68
2022-10-04T10:42:38.833Z,51.57
2022-10-04T10:45:47.344Z,50.13
2022-10-04T10:48:20.090Z,50.62
2022-10-04T10:51:38.089Z,50.00
2022-10-04T10:54:20.612Z,48.93
2022-10-04T10:57:21.660Z,48.90
2022-10-04T11:00:13.042Z,48.95
2022-10-04T11:03:12.803Z,48.17
2022-10-04T11:05:51.563Z,46.27
2022-10-04T11:08:36.817Z,45.20
2022-10-04T11:11:24.979Z,45.57
2022-10-04T11:13:57.581Z,46.25
2022-10-04T11:16:35.748Z,45.89
2022-10-04T11:19:06.355Z,48.21
2022-10-04T11:22:07.489Z,49.28
2022-10-04T11:24:45.858Z,49.61
2022-10-04T11:27:28.939Z,50.21
2022-10-04T11:30:09.360Z,50.83
2022-10-04T11:32:51.177Z,51.54
2022-10-04T11:35:39.393Z,51.37
2022-10-04T11:38:12.077Z,52.19
2022-10-04T11:40:53.659Z,51.14
2022-10-04T11:43:36.191Z,51.89
2022-10-04T11:46:14.486Z,51.70
2022-10-04T11:48:54.127Z,51.30
2022-10-04T11:51:44.958Z,51.18
2022-10-04T11:54:27.664Z,50.46
2022-10-04T11:57:25.419Z,49.40
2022-10-04T12:00:07.254Z,48.00
2022-10-04T12:03:02.716Z,47.78
2022-10-04T12:05:48.474Z,46.49
2022-10-04T12:08:33.488Z,47.05
2022-10-04T12:11:52.354Z,46.17
2022-10-04T12:14:44.149Z,46.00
2022-10-04T12:17:10.701Z,47.05
2022-10-04T12:19:59.305Z,47.63
2022-10-04T12:22:32.019Z,46.26
2022-10-04T12:25:01.622Z,45.51
2022-10-04T12:27:53.329Z,44.43
2022-10-04T12:30:22.632Z,45.27
2022-10-04T12:33:11.287Z,44.99
2022-10-04T12:35:52.160Z,45.51
2022-10-04T12:38:26.622Z,45.92
2022-10-04T12:41:02.006Z,45.71
2022-10-04T12:43:52.039Z,45.97
2022-10-04T12:46:48.760Z,46.10
2022-10-04T12:49:40.369Z,46.06
2022-10-04T12:52:17.442Z,46.10
2022-10-04T12:54:47.430Z,45.93
2022-10-04T12:57:40.310Z,46.52
2022-10-04T13:00:20.694Z,46.36
2022-10-04T13:02:57.465Z,46.92
2022-10-04T13:05:52.277Z,46.47
2022-10-04T13:08:37.912Z,46.52
2022-10-04T13:11:04.708Z,46.50
2022-10-04T13:13:34.197Z,46.04
2022-10-04T13:19:13.853Z,45.99
2022-10-04T13:22:05.481Z,45.54
2022-10-04T13:24:56.589Z,45.63
2022-10-04T13:27:38.478Z,45.18
2022-10-04T13:30:20.372Z,44.91
2022-10-04T13:33:05.156Z,45.64
2022-10-04T13:35:46.734Z,45.80
2022-10-04T13:38:41.571Z,45.59
2022-10-04T13:41:37.162Z,44.91
2022-10-04T13:44:09.857Z,44.87
2022-10-04T13:47:17.773Z,45.50
2022-10-04T13:50:10.813Z,45.81
2022-10-04T13:53:08.147Z,45.42
2022-10-04T13:56:30.182Z,45.28
2022-10-04T13:59:35.245Z,44.65
2022-10-04T14:02:32.630Z,45.35
2022-10-04T14:05:16.021Z,45.45
2022-10-04T14:08:13.299Z,44.79
2022-10-04T14:10:48.533Z,44.36
2022-10-04T14:13:40.885Z,44.33
2022-10-04T14:16:38.206Z,43.88
2022-10-04T14:19:26.430Z,44.36
2022-10-04T14:22:04.846Z,43.99
2022-10-04T14:24:47.007Z,44.21
2022-10-04T14:27:51.739Z,44.07
2022-10-04T14:30:38.739Z,44.36
2022-10-04T14:33:35.266Z,43.20
2022-10-04T14:36:23.753Z,43.04
2022-10-04T14:39:14.529Z,42.72
2022-10-04T14:41:53.343Z,42.46
2022-10-04T14:44:47.906Z,42.31
2022-10-04T14:47:28.958Z,42.27
2022-10-04T14:50:19.047Z,41.58
2022-10-04T14:52:48.594Z,42.11
2022-10-04T14:55:46.287Z,42.51
2022-10-04T14:58:24.466Z,42.51
2022-10-04T15:01:02.389Z,42.56
2022-10-04T15:03:39.017Z,43.08
2022-10-04T15:06:26.864Z,42.88
2022-10-04T15:09:06.271Z,42.93
2022-10-04T15:12:25.634Z,43.64
2022-10-04T15:15:12.902Z,43.86
2022-10-04T15:17:55.303Z,44.46
2022-10-04T15:20:30.985Z,44.49
2022-10-04T15:23:13.490Z,44.23
2022-10-04T15:25:51.936Z,44.81
2022-10-04T15:28:39.808Z,44.44
2022-10-04T15:31:25.495Z,45.04
2022-10-04T15:34:25.627Z,44.94
2022-10-04T15:37:10.259Z,45.82
2022-10-04T15:39:51.687Z,46.07
2022-10-04T15:42:21.291Z,46.54
2022-10-04T15:45:23.010Z,46.97
2022-10-04T15:47:52.654Z,47.10
2022-10-04T15:50:54.046Z,47.76
2022-10-04T15:53:44.232Z,48.37
2022-10-04T15:56:27.590Z,49.72
2022-10-04T15:59:12.565Z,50.74
2022-10-04T16:02:02.223Z,51.10
2022-10-04T16:04:32.549Z,51.09
2022-10-04T16:07:17.089Z,51.40
2022-10-04T16:10:14.795Z,52.19
2022-10-04T16:12:48.492Z,52.70
2022-10-04T16:15:38.537Z,53.22
2022-10-04T16:18:44.103Z,54.01
2022-10-04T16:21:15.987Z,54.73
2022-10-04T16:23:45.292Z,54.72
2022-10-04T16:26:19.461Z,54.62
2022-10-04T16:29:00.543Z,55.99
2022-10-04T16:31:45.707Z,56.80
2022-10-04T16:34:15.431Z,56.86
2022-10-04T16:36:54.132Z,56.85
2022-10-04T16:40:08.550Z,56.62
2022-10-04T16:42:56.222Z,56.96
2022-10-04T16:45:38.715Z,56.81
2022-10-04T16:48:33.732Z,57.32
2022-10-04T16:51:23.439Z,57.70
2022-10-04T16:53:53.287Z,58.19
2022-10-04T16:56:24.891Z,58.43
2022-10-04T16:59:00.504Z,58.48
2022-10-04T17:01:56.802Z,58.78
2022-10-04T17:04:41.427Z,59.34
2022-10-04T17:07:13.674Z,59.70
2022-10-04T17:09:40.280Z,60.20
2022-10-04T17:12:27.336Z,60.07
2022-10-04T17:15:13.948Z,60.29
2022-10-04T17:18:05.122Z,60.71
2022-10-04T17:20:40.705Z,60.88
2022-10-04T17:23:46.097Z,60.73
2022-10-04T17:27:05.759Z,61.18
2022-10-04T17:30:00.194Z,61.06
2022-10-04T17:32:55.044Z,61.37
2022-10-04T17:35:44.424Z,61.61
2022-10-04T17:38:20.379Z,62.07
2022-10-04T17:41:00.619Z,62.84
2022-10-04T17:43:33.163Z,63.69
2022-10-04T17:46:33.522Z,64.39
2022-10-04T17:49:40.523Z,65.08
2022-10-04T17:52:37.183Z,65.62
2022-10-04T17:55:16.740Z,65.85
2022-10-04T17:57:55.765Z,66.08
2022-10-04T18:00:28.485Z,66.44
2022-10-04T18:03:10.370Z,66.93
2022-10-04T18:05:50.727Z,66.60
2022-10-04T18:08:27.293Z,66.96
2022-10-04T18:11:06.101Z,67.22
2022-10-04T18:13:49.972Z,67.19
2022-10-04T18:16:28.502Z,67.32
2022-10-04T18:18:55.569Z,67.34
2022-10-04T18:21:31.568Z,67.37
2022-10-04T18:24:20.191Z,67.49
2022-10-04T18:27:14.604Z,68.37
2022-10-04T18:30:01.445Z,68.71
2022-10-04T18:32:28.069Z,68.47
2022-10-04T18:34:56.826Z,68.55
2022-10-04T18:37:39.106Z,68.60
2022-10-04T18:40:28.633Z,68.97
2022-10-04T18:42:57.760Z,69.53
2022-10-04T18:45:28.906Z,69.63
2022-10-04T18:47:58.891Z,69.98
2022-10-04T18:50:43.738Z,70.66
2022-10-04T18:53:14.182Z,71.04
2022-10-04T18:55:43.994Z,70.82
2022-10-04T18:58:43.485Z,70.80
2022-10-04T19:02:00.300Z,71.22
2022-10-04T19:04:55.580Z,71.64
2022-10-04T19:07:29.327Z,71.04
2022-10-04T19:10:19.083Z,71.63
2022-10-04T19:13:02.470Z,71.14
2022-10-04T19:15:41.667Z,72.11
2022-10-04T19:18:36.836Z,72.85
2022-10-04T19:21:15.746Z,73.05
2022-10-04T19:24:21.520Z,73.38
2022-10-04T19:26:52.361Z,73.66
2022-10-04T19:29:41.431Z,73.61
2022-10-04T19:32:19.545Z,73.50
2022-10-04T19:35:37.705Z,73.65
2022-10-04T19:38:20.685Z,73.98
2022-10-04T19:40:54.099Z,73.99
2022-10-04T19:43:36.473Z,73.59
2022-10-04T19:46:15.039Z,73.58
2022-10-04T19:48:52.428Z,74.30
2022-10-04T19:51:42.694Z,75.08
2022-10-04T19:54:16.255Z,74.82
2022-10-04T19:56:49.396Z,75.20
2022-10-04T19:59:31.178Z,75.13
2022-10-04T20:01:57.951Z,75.36
2022-10-04T20:04:38.551Z,75.06
2022-10-04T20:07:18.139Z,74.83
2022-10-04T20:09:47.897Z,74.63
2022-10-04T20:13:04.140Z,75.38
2022-10-04T20:15:34.819Z,75.57
2022-10-04T20:18:03.325Z,76.09
2022-10-04T20:20:38.873Z,75.65
2022-10-04T20:23:10.342Z,76.03
2022-10-04T20:25:45.898Z,76.05
2022-10-04T20:28:28.051Z,76.25
2022-10-04T20:30:57.803Z,76.49
2022-10-04T20:33:37.237Z,76.21
2022-10-04T20:36:11.385Z,76.17
2022-10-04T20:38:47.232Z,76.34
2022-10-04T20:41:29.687Z,76.37
2022-10-04T20:44:01.817Z,76.47
2022-10-04T20:46:38.086Z,76.82
2022-10-04T20:49:14.576Z,76.80
2022-10-04T20:51:48.302Z,76.89
2022-10-04T20:54:20.240Z,76.76
2022-10-04T20:56:49.397Z,77.49
2022-10-04T20:59:18.060Z,77.36
2022-10-04T21:02:01.746Z,77.39
2022-10-04T21:04:29.859Z,77.48
2022-10-04T21:06:57.776Z,77.92
2022-10-04T21:09:25.986Z,78.75
2022-10-04T21:11:54.862Z,78.30
2022-10-04T21:14:25.904Z,78.11
2022-10-04T21:16:57.552Z,78.09
2022-10-04T21:19:38.768Z,78.15
2022-10-04T21:22:29.040Z,77.60
2022-10-04T21:25:01.164Z,78.12
2022-10-04T21:27:43.551Z,78.07
2022-10-04T21:30:15.609Z,78.33
2022-10-04T21:32:42.402Z,77.82
2022-10-04T21:35:09.406Z,78.29
2022-10-04T21:37:36.908Z,78.49
2022-10-04T21:40:05.303Z,78.51
2022-10-04T21:42:32.450Z,78.41
2022-10-04T21:44:59.107Z,77.89
2022-10-04T21:47:25.908Z,77.77
2022-10-04T21:49:53.830Z,77.99
2022-10-04T21:52:20.930Z,78.01
2022-10-04T21:54:47.629Z,78.00
2022-10-04T21:57:14.439Z,78.44
2022-10-04T21:59:41.226Z,78.71
2022-10-04T22:02:08.393Z,78.72
2022-10-04T22:04:35.152Z,78.74
2022-10-04T22:07:01.816Z,79.10
2022-10-04T22:09:29.229Z,79.14
2022-10-04T22:11:55.984Z,79.09
2022-10-04T22:14:22.679Z,79.28
2022-10-04T22:16:50.131Z,79.01
2022-10-04T22:19:17.289Z,78.69
2022-10-04T22:21:44.033Z,78.82
2022-10-04T22:24:19.551Z,78.88
2022-10-04T22:26:47.129Z,79.24
2022-10-04T22:29:15.837Z,79.04
2022-10-04T22:31:49.142Z,78.82
2022-10-04T22:34:17.364Z,78.54
2022-10-04T22:36:44.718Z,78.11
2022-10-04T22:39:15.613Z,77.98
2022-10-04T22:41:43.811Z,78.44
2022-10-04T22:44:17.283Z,78.38
2022-10-04T22:46:48.195Z,78.32
2022-10-04T22:49:22.612Z,78.90
2022-10-04T22:51:51.682Z,78.57
2022-10-04T22:54:20.900Z,78.74
2022-10-04T22:56:48.378Z,78.80
2022-10-04T22:59:19.427Z,78.80
2022-10-04T23:01:47.291Z,78.86
2022-10-04T23:04:20.892Z,79.12
2022-10-04T23:06:48.168Z,79.38
2022-10-04T23:09:15.499Z,79.36
2022-10-04T23:11:42.773Z,79.48
2022-10-04T23:14:09.621Z,79.72
2022-10-04T23:16:37.254Z,79.22
2022-10-04T23:19:10.111Z,79.45
2022-10-04T23:21:38.657Z,79.39
2022-10-04T23:24:19.491Z,79.72
2022-10-04T23:26:49.136Z,79.84
2022-10-04T23:29:23.916Z,79.51
2022-10-04T23:31:51.647Z,80.21
2022-10-04T23:34:33.040Z,79.97
2022-10-04T23:37:00.049Z,79.96
2022-10-04T23:39:36.152Z,79.37
2022-10-04T23:42:15.985Z,79.46
2022-10-04T23:44:42.771Z,78.83
2022-10-04T23:47:14.203Z,79.16
2022-10-04T23:49:41.275Z,79.09
2022-10-04T23:52:14.331Z,78.69
2022-10-04T23:54:41.288Z,79.35
2022-10-04T23:57:17.270Z,79.12
2022-10-04T23:59:44.026Z,78.69
